Time;durP1;ratioP1;P1;durP2;ratioP2;P2;SDS_P1;SDS_P2;PMS_P1;PMS_P2;Temp;Humidity;BMP_temperature;BMP_pressure;BME280_temperature;BME280_humidity;BME280_pressure;Samples;Min_cycle;Max_cycle;Signal;HPM_P1;HPM_P2
2023/01/08 00:00:48;;;;;;;4.35;1.58;;;10.60;99.90;;;;;;5072502;28;20182;-45
2023/01/08 00:03:14;;;;;;;1.40;1.30;;;10.50;99.90;;;;;;5071945;28;20292;-46
2023/01/08 00:05:40;;;;;;;2.58;1.63;;;10.50;99.90;;;;;;5072612;28;20233;-45
2023/01/08 00:08:07;;;;;;;2.55;1.55;;;10.50;99.90;;;;;;5072555;28;20368;-45
2023/01/08 00:10:33;;;;;;;1.58;1.48;;;10.50;99.90;;;;;;5073300;28;20204;-45
2023/01/08 00:12:59;;;;;;;1.60;1.50;;;10.50;99.90;;;;;;5072896;28;20162;-45
2023/01/08 00:15:24;;;;;;;1.75;1.65;;;10.40;99.90;;;;;;5072900;28;20249;-45
2023/01/08 00:17:50;;;;;;;2.72;1.65;;;10.40;99.90;;;;;;5072826;28;20254;-45
2023/01/08 00:20:16;;;;;;;3.15;1.92;;;10.40;99.90;;;;;;5072855;28;20174;-45
2023/01/08 00:22:41;;;;;;;1.65;1.45;;;10.30;99.90;;;;;;5072780;28;20165;-45
2023/01/08 00:25:07;;;;;;;2.03;1.55;;;10.30;99.90;;;;;;5072873;28;20720;-45
2023/01/08 00:27:33;;;;;;;4.75;2.88;;;10.30;99.90;;;;;;5072932;28;20174;-45
2023/01/08 00:29:58;;;;;;;1.70;1.48;;;10.20;99.90;;;;;;5072609;28;20162;-46
2023/01/08 00:32:24;;;;;;;3.42;2.10;;;10.30;99.90;;;;;;5072609;28;20165;-45
2023/01/08 00:34:50;;;;;;;2.63;2.25;;;10.30;99.90;;;;;;5072598;28;20194;-45
2023/01/08 00:37:19;;;;;;;4.82;2.53;;;10.30;99.90;;;;;;5072612;28;20181;-45
2023/01/08 00:39:44;;;;;;;2.97;1.80;;;10.30;99.90;;;;;;5072424;28;20235;-45
2023/01/08 00:42:11;;;;;;;4.15;1.90;;;10.30;99.90;;;;;;5072372;28;20632;-45
2023/01/08 00:44:36;;;;;;;2.63;1.75;;;10.30;99.90;;;;;;5072238;28;20170;-45
2023/01/08 00:47:02;;;;;;;3.22;1.90;;;10.30;99.90;;;;;;5072647;28;20185;-45
2023/01/08 00:49:28;;;;;;;1.92;1.50;;;10.30;99.90;;;;;;5072204;28;20245;-45
2023/01/08 00:51:53;;;;;;;2.00;1.65;;;10.30;99.90;;;;;;5072207;28;20177;-45
2023/01/08 00:54:19;;;;;;;4.88;1.73;;;10.40;99.90;;;;;;5072121;28;20178;-45
2023/01/08 00:56:44;;;;;;;7.63;2.72;;;10.30;99.90;;;;;;5072176;28;20173;-45
2023/01/08 00:59:10;;;;;;;3.00;2.13;;;10.30;99.90;;;;;;5072202;28;20180;-45
2023/01/08 01:01:35;;;;;;;4.32;1.85;;;10.30;99.90;;;;;;5071883;28;20313;-45
2023/01/08 01:04:01;;;;;;;2.50;1.50;;;10.30;99.90;;;;;;5072357;28;20174;-45
2023/01/08 01:06:26;;;;;;;1.83;1.70;;;10.30;99.90;;;;;;5071920;28;20230;-45
2023/01/08 01:08:52;;;;;;;5.70;2.17;;;10.40;99.90;;;;;;5071952;28;20180;-45
2023/01/08 01:11:23;;;;;;;2.22;1.50;;;10.30;99.90;;;;;;5071880;28;20174;-45
2023/01/08 01:13:50;;;;;;;2.80;2.10;;;10.40;99.90;;;;;;5071878;28;20592;-45
2023/01/08 01:16:15;;;;;;;2.75;1.88;;;10.40;99.90;;;;;;5071874;28;20189;-45
2023/01/08 01:18:41;;;;;;;14.38;5.63;;;10.40;99.90;;;;;;5071270;28;20622;-45
2023/01/08 01:21:21;;;;;;;9.95;4.93;;;10.40;99.90;;;;;;5071440;28;20193;-45
2023/01/08 01:23:47;;;;;;;3.10;2.05;;;10.40;99.90;;;;;;5071847;28;20185;-45
2023/01/08 01:26:18;;;;;;;7.68;2.38;;;10.40;99.90;;;;;;5071953;28;20205;-45
2023/01/08 01:28:46;;;;;;;2.72;2.00;;;10.40;99.90;;;;;;5071766;28;20201;-45
2023/01/08 01:31:12;;;;;;;5.47;3.20;;;10.40;99.90;;;;;;5071681;28;20174;-46
2023/01/08 01:33:39;;;;;;;4.63;2.88;;;10.40;99.90;;;;;;5071685;28;20173;-45
2023/01/08 01:36:05;;;;;;;3.67;2.25;;;10.40;99.90;;;;;;5071975;28;20189;-45
2023/01/08 01:38:31;;;;;;;4.43;2.50;;;10.50;99.90;;;;;;5072119;28;20168;-45
2023/01/08 01:40:58;;;;;;;3.25;2.22;;;10.50;99.90;;;;;;5071698;28;20548;-45
2023/01/08 01:43:42;;;;;;;2.55;2.00;;;10.50;99.90;;;;;;5071493;28;20261;-45
2023/01/08 01:46:32;;;;;;;3.70;2.20;;;10.40;99.90;;;;;;5071585;28;20209;-45
2023/01/08 01:49:04;;;;;;;2.03;1.83;;;10.40;99.90;;;;;;5071539;28;20162;-45
2023/01/08 01:51:33;;;;;;;2.92;2.13;;;10.40;99.90;;;;;;5072037;28;20166;-45
2023/01/08 01:54:01;;;;;;;4.40;2.50;;;10.40;99.90;;;;;;5071443;28;20602;-45
2023/01/08 01:56:29;;;;;;;2.25;1.58;;;10.40;99.90;;;;;;5071510;28;20172;-45
2023/01/08 01:58:55;;;;;;;2.40;1.83;;;10.40;99.90;;;;;;5071471;28;20569;-45
2023/01/08 02:01:21;;;;;;;4.00;2.13;;;10.40;99.90;;;;;;5071238;28;20170;-45
2023/01/08 02:03:47;;;;;;;1.95;1.75;;;10.40;99.90;;;;;;5071288;28;20195;-46
2023/01/08 02:06:35;;;;;;;3.17;2.65;;;10.40;99.90;;;;;;5071262;28;20204;-45
2023/01/08 02:09:40;;;;;;;2.70;2.20;;;10.40;99.90;;;;;;5071768;28;20162;-45
2023/01/08 02:12:31;;;;;;;3.97;2.17;;;10.40;99.90;;;;;;5048274;28;20189;-45
2023/01/08 02:15:22;;;;;;;4.22;2.28;;;10.40;99.90;;;;;;5071504;28;20166;-45
2023/01/08 02:18:05;;;;;;;3.13;2.08;;;10.40;99.90;;;;;;5071248;28;20170;-45
2023/01/08 02:20:40;;;;;;;3.70;2.30;;;10.40;99.90;;;;;;5071887;28;20248;-45
2023/01/08 02:23:29;;;;;;;3.90;2.05;;;10.40;99.90;;;;;;5071489;28;20170;-46
2023/01/08 02:26:16;;;;;;;2.05;1.85;;;10.40;99.90;;;;;;5071218;28;20293;-46
2023/01/08 02:28:52;;;;;;;2.47;2.00;;;10.40;99.90;;;;;;5071317;28;20170;-47
2023/01/08 02:31:19;;;;;;;2.75;2.30;;;10.40;99.90;;;;;;5073043;28;20174;-45
2023/01/08 02:33:45;;;;;;;3.35;2.25;;;10.40;99.90;;;;;;5074846;28;20697;-46
2023/01/08 02:36:17;;;;;;;2.75;1.80;;;10.30;99.90;;;;;;5074843;28;20170;-46
2023/01/08 02:39:00;;;;;;;4.90;2.00;;;10.30;99.90;;;;;;5075021;28;20165;-46
2023/01/08 02:41:56;;;;;;;3.28;1.90;;;10.40;99.90;;;;;;5074679;28;20590;-45
2023/01/08 02:44:34;;;;;;;3.85;2.22;;;10.30;99.90;;;;;;5045933;28;20182;-46
2023/01/08 02:47:04;;;;;;;2.40;1.75;;;10.30;99.90;;;;;;5074996;28;20185;-47
2023/01/08 02:49:34;;;;;;;7.40;2.67;;;10.30;99.90;;;;;;5074856;28;20169;-47
2023/01/08 02:52:02;;;;;;;1.90;1.73;;;10.40;99.90;;;;;;5075026;28;20566;-47
2023/01/08 02:54:33;;;;;;;2.78;1.52;;;10.30;99.90;;;;;;5074751;28;20205;-45
2023/01/08 02:57:02;;;;;;;3.90;1.90;;;10.30;99.90;;;;;;5073157;28;20178;-46
2023/01/08 02:59:32;;;;;;;2.88;1.73;;;10.30;99.90;;;;;;5074415;28;20185;-46
2023/01/08 03:01:59;;;;;;;2.38;1.83;;;10.30;99.90;;;;;;5074063;28;20221;-45
2023/01/08 03:04:27;;;;;;;2.28;1.83;;;10.30;99.90;;;;;;5074314;28;20610;-46
2023/01/08 03:06:53;;;;;;;3.13;2.28;;;10.30;99.90;;;;;;5074427;28;20570;-46
2023/01/08 03:09:19;;;;;;;2.92;1.60;;;10.30;99.90;;;;;;5074180;28;20166;-46
2023/01/08 03:12:27;;;;;;;2.50;1.70;;;10.30;99.90;;;;;;5074269;28;20615;-46
2023/01/08 03:14:59;;;;;;;2.28;1.60;;;10.30;99.90;;;;;;5044830;28;20182;-46
2023/01/08 03:17:36;;;;;;;2.92;1.80;;;10.30;99.90;;;;;;5073979;28;20670;-47
2023/01/08 03:20:13;;;;;;;2.03;1.20;;;10.30;99.90;;;;;;5074391;28;20188;-46
2023/01/08 03:22:41;;;;;;;1.50;1.40;;;10.30;99.90;;;;;;5073971;28;20174;-46
2023/01/08 03:25:08;;;;;;;1.65;1.20;;;10.30;99.90;;;;;;5074107;28;20194;-46
2023/01/08 03:27:39;;;;;;;1.63;1.40;;;10.40;99.90;;;;;;5074109;28;20536;-45
2023/01/08 03:30:07;;;;;;;1.40;1.30;;;10.40;99.90;;;;;;5073952;28;20231;-46
2023/01/08 03:32:34;;;;;;;1.73;1.60;;;10.30;99.90;;;;;;5074190;28;20166;-46
2023/01/08 03:35:02;;;;;;;1.95;1.42;;;10.30;99.90;;;;;;5074069;28;20209;-47
2023/01/08 03:37:36;;;;;;;1.33;1.20;;;10.30;99.90;;;;;;5073709;28;20257;-46
2023/01/08 03:40:13;;;;;;;1.45;1.30;;;10.30;99.90;;;;;;5073975;28;20645;-46
2023/01/08 03:42:38;;;;;;;2.00;1.48;;;10.30;99.90;;;;;;5072691;28;20276;-45
2023/01/08 03:45:05;;;;;;;2.42;1.20;;;10.30;99.90;;;;;;5073699;28;20705;-46
2023/01/08 03:47:33;;;;;;;1.23;1.02;;;10.30;99.90;;;;;;5073864;28;20573;-45
2023/01/08 03:50:01;;;;;;;1.95;1.42;;;10.30;99.90;;;;;;5073930;28;20220;-45
2023/01/08 03:52:30;;;;;;;1.50;1.20;;;10.30;99.90;;;;;;5073432;28;20166;-46
2023/01/08 03:54:56;;;;;;;1.40;1.30;;;10.30;99.90;;;;;;5073203;28;20174;-45
2023/01/08 03:57:22;;;;;;;3.05;1.40;;;10.30;99.90;;;;;;5073318;28;20175;-46
2023/01/08 03:59:47;;;;;;;1.42;1.20;;;10.30;99.90;;;;;;5073228;28;20162;-45
2023/01/08 04:02:13;;;;;;;3.33;1.30;;;10.30;99.90;;;;;;5073046;28;20266;-47
2023/01/08 04:04:39;;;;;;;1.90;1.48;;;10.30;99.90;;;;;;5072856;28;20177;-45
2023/01/08 04:07:05;;;;;;;1.40;1.27;;;10.30;99.90;;;;;;5073199;28;20174;-46
2023/01/08 04:09:30;;;;;;;2.22;1.30;;;10.30;99.90;;;;;;5073493;28;20166;-46
2023/01/08 04:11:56;;;;;;;1.95;1.40;;;10.30;99.90;;;;;;5073092;28;20169;-46
2023/01/08 04:14:21;;;;;;;2.33;1.40;;;10.30;99.90;;;;;;5073019;28;20183;-45
2023/01/08 04:16:47;;;;;;;2.58;1.75;;;10.30;99.90;;;;;;5072995;28;20169;-46
2023/01/08 04:19:13;;;;;;;2.45;1.55;;;10.30;99.90;;;;;;5073018;28;20166;-45
2023/01/08 04:21:38;;;;;;;4.35;1.90;;;10.30;99.90;;;;;;5072882;28;20184;-45
2023/01/08 04:24:05;;;;;;;3.85;2.67;;;10.30;99.90;;;;;;5072892;28;20204;-45
2023/01/08 04:26:30;;;;;;;3.78;1.58;;;10.30;99.90;;;;;;5073144;28;20251;-46
2023/01/08 04:28:56;;;;;;;2.72;1.35;;;10.30;99.90;;;;;;5072820;28;20166;-48
2023/01/08 04:31:21;;;;;;;2.22;1.17;;;10.30;99.90;;;;;;5072802;28;20166;-46
2023/01/08 04:33:47;;;;;;;6.25;1.30;;;10.30;99.90;;;;;;5072746;28;20629;-46
2023/01/08 04:36:13;;;;;;;2.55;1.35;;;10.30;99.90;;;;;;5072663;28;20661;-45
2023/01/08 04:38:38;;;;;;;2.58;1.40;;;10.30;99.90;;;;;;5072569;28;20178;-45
2023/01/08 04:41:04;;;;;;;2.83;1.65;;;10.30;99.90;;;;;;5072404;28;20170;-46
2023/01/08 04:43:30;;;;;;;5.72;1.45;;;10.30;99.90;;;;;;5073089;28;20173;-45
2023/01/08 04:45:58;;;;;;;4.20;1.77;;;10.30;99.90;;;;;;5071161;28;20288;-46
2023/01/08 04:48:23;;;;;;;6.05;1.80;;;10.40;99.90;;;;;;5072192;28;20631;-45
2023/01/08 04:50:50;;;;;;;3.47;1.73;;;10.50;99.90;;;;;;5072273;28;20253;-45
2023/01/08 04:53:15;;;;;;;3.85;1.55;;;10.50;99.90;;;;;;5072429;28;20247;-46
2023/01/08 04:55:41;;;;;;;5.45;1.40;;;10.60;99.90;;;;;;5072368;28;20174;-45
2023/01/08 04:58:06;;;;;;;3.30;1.63;;;10.50;99.90;;;;;;5072012;28;20198;-45
2023/01/08 05:00:32;;;;;;;3.35;1.23;;;10.50;99.90;;;;;;5072475;28;20173;-46
2023/01/08 05:02:58;;;;;;;3.30;1.38;;;10.40;99.90;;;;;;5072269;28;20213;-45
2023/01/08 05:05:23;;;;;;;3.00;1.80;;;10.40;99.90;;;;;;5071975;28;20189;-45
2023/01/08 05:07:49;;;;;;;1.90;1.30;;;10.30;99.90;;;;;;5071992;28;20241;-45
2023/01/08 05:10:15;;;;;;;2.40;1.13;;;10.30;99.90;;;;;;5072263;28;20166;-45
2023/01/08 05:12:40;;;;;;;3.08;1.30;;;10.30;99.90;;;;;;5071962;28;20638;-45
2023/01/08 05:15:07;;;;;;;2.10;1.20;;;10.40;99.90;;;;;;5072193;28;20178;-46
2023/01/08 05:17:33;;;;;;;2.58;1.38;;;10.30;99.90;;;;;;5072162;28;20253;-45
2023/01/08 05:19:59;;;;;;;3.10;1.50;;;10.30;99.90;;;;;;5072326;28;20212;-45
2023/01/08 05:22:24;;;;;;;1.73;1.10;;;10.30;99.90;;;;;;5071855;28;20169;-45
2023/01/08 05:24:50;;;;;;;2.55;1.40;;;10.30;99.90;;;;;;5072115;28;20178;-45
2023/01/08 05:27:15;;;;;;;5.20;2.08;;;10.20;99.90;;;;;;5071794;28;20253;-45
2023/01/08 05:29:41;;;;;;;3.00;1.50;;;10.30;99.90;;;;;;5071892;28;20190;-45
2023/01/08 05:32:14;;;;;;;3.80;1.33;;;10.40;99.90;;;;;;5071720;28;20173;-45
2023/01/08 05:34:40;;;;;;;2.05;1.50;;;10.40;99.90;;;;;;5071679;28;20162;-45
2023/01/08 05:37:05;;;;;;;4.68;2.03;;;10.40;99.90;;;;;;5071545;28;20226;-46
2023/01/08 05:39:31;;;;;;;4.57;1.77;;;10.40;99.90;;;;;;5072019;28;20169;-46
2023/01/08 05:41:56;;;;;;;3.15;1.55;;;10.40;99.90;;;;;;5071632;28;20169;-45
2023/01/08 05:44:22;;;;;;;3.88;2.03;;;10.40;99.90;;;;;;5071792;28;21202;-45
2023/01/08 05:46:47;;;;;;;6.53;1.60;;;10.40;99.90;;;;;;5071621;28;20627;-43
2023/01/08 05:49:13;;;;;;;3.95;1.88;;;10.40;99.90;;;;;;5071571;28;20246;-43
2023/01/08 05:51:38;;;;;;;3.47;1.67;;;10.40;99.90;;;;;;5071522;28;20174;-43
2023/01/08 05:54:04;;;;;;;5.00;1.90;;;10.30;99.90;;;;;;5071541;28;20173;-43
2023/01/08 05:56:30;;;;;;;4.53;1.90;;;10.30;99.90;;;;;;5072231;28;20177;-43
2023/01/08 05:58:55;;;;;;;2.70;1.45;;;10.30;99.90;;;;;;5071484;28;20166;-43
2023/01/08 06:01:21;;;;;;;4.90;1.65;;;10.30;99.90;;;;;;5071328;28;20167;-43
2023/01/08 06:03:47;;;;;;;3.30;1.80;;;10.30;99.90;;;;;;5071390;28;20182;-43
2023/01/08 06:06:13;;;;;;;3.55;1.85;;;10.30;99.90;;;;;;5073393;28;20581;-43
2023/01/08 06:08:38;;;;;;;3.28;1.60;;;10.30;99.90;;;;;;5075359;28;20170;-43
2023/01/08 06:11:07;;;;;;;2.75;1.40;;;10.20;99.90;;;;;;5074112;28;20170;-43
2023/01/08 06:13:33;;;;;;;5.18;1.30;;;10.20;99.90;;;;;;5075997;28;20174;-44
2023/01/08 06:15:59;;;;;;;6.03;1.70;;;10.20;99.90;;;;;;5075553;28;20702;-44
2023/01/08 06:18:26;;;;;;;14.35;7.18;;;10.10;99.90;;;;;;5075445;28;20530;-44
2023/01/08 06:20:51;;;;;;;2.85;1.48;;;10.10;99.90;;;;;;5075127;28;20220;-45
2023/01/08 06:23:17;;;;;;;4.40;1.25;;;10.10;99.90;;;;;;5074888;28;20166;-44
2023/01/08 06:25:43;;;;;;;4.43;1.35;;;10.10;99.90;;;;;;5074847;28;20209;-44
2023/01/08 06:28:09;;;;;;;2.78;0.98;;;10.10;99.90;;;;;;5075131;28;20247;-44
2023/01/08 06:30:34;;;;;;;2.13;1.27;;;10.10;99.90;;;;;;5074936;28;20209;-44
2023/01/08 06:33:01;;;;;;;1.48;0.98;;;10.10;99.90;;;;;;5075093;28;20274;-43
2023/01/08 06:35:27;;;;;;;1.08;0.60;;;10.10;99.90;;;;;;5075084;28;20191;-46
2023/01/08 06:37:56;;;;;;;1.55;0.35;;;9.50;99.90;;;;;;5075057;28;20487;-44
2023/01/08 06:40:22;;;;;;;0.50;0.40;;;9.20;99.90;;;;;;5073456;28;20166;-43
2023/01/08 06:42:48;;;;;;;1.35;0.60;;;9.00;99.90;;;;;;5074778;28;20177;-43
2023/01/08 06:45:14;;;;;;;2.47;0.73;;;9.00;99.90;;;;;;5074590;28;20193;-43
2023/01/08 06:47:39;;;;;;;1.65;1.23;;;8.90;99.90;;;;;;5074582;28;20170;-43
2023/01/08 06:50:05;;;;;;;3.28;1.15;;;8.80;99.90;;;;;;5073310;28;20652;-43
2023/01/08 06:52:32;;;;;;;5.47;1.33;;;8.80;99.90;;;;;;5074786;28;20633;-43
2023/01/08 06:54:57;;;;;;;5.97;1.10;;;8.70;99.90;;;;;;5074519;28;20185;-44
2023/01/08 06:57:23;;;;;;;4.05;0.88;;;8.70;99.90;;;;;;5074229;28;20657;-43
2023/01/08 06:59:48;;;;;;;6.10;0.80;;;8.70;99.90;;;;;;5074310;28;20235;-43
2023/01/08 07:02:15;;;;;;;2.30;0.57;;;8.60;99.90;;;;;;5074184;28;20246;-43
2023/01/08 07:04:41;;;;;;;4.68;1.00;;;8.70;99.90;;;;;;5074312;28;20544;-43
2023/01/08 07:07:07;;;;;;;1.02;0.85;;;8.70;99.90;;;;;;5074535;28;20208;-43
2023/01/08 07:09:33;;;;;;;1.92;1.10;;;8.70;99.90;;;;;;5074237;28;20238;-43
2023/01/08 07:11:59;;;;;;;4.13;1.55;;;8.70;99.90;;;;;;5074530;28;20647;-43
2023/01/08 07:14:25;;;;;;;2.33;0.95;;;8.70;99.90;;;;;;5074239;28;20245;-43
2023/01/08 07:16:50;;;;;;;3.20;1.35;;;8.70;99.90;;;;;;5073044;28;20170;-43
2023/01/08 07:19:16;;;;;;;3.28;1.20;;;8.70;99.90;;;;;;5073852;28;20174;-43
2023/01/08 07:21:41;;;;;;;2.90;0.95;;;8.80;99.90;;;;;;5074089;28;20245;-51
2023/01/08 07:24:07;;;;;;;3.05;1.15;;;8.70;99.90;;;;;;5074079;28;20621;-47
2023/01/08 07:26:34;;;;;;;1.33;0.85;;;8.80;99.90;;;;;;5074013;28;20609;-46
2023/01/08 07:28:59;;;;;;;5.35;0.88;;;8.80;99.90;;;;;;5074269;28;20634;-43
2023/01/08 07:31:25;;;;;;;1.95;1.00;;;8.80;99.90;;;;;;5073965;28;20219;-43
2023/01/08 07:33:51;;;;;;;2.47;1.40;;;8.90;99.90;;;;;;5073850;28;20531;-43
2023/01/08 07:36:21;;;;;;;3.38;1.10;;;8.90;99.90;;;;;;5072572;28;20604;-43
2023/01/08 07:38:48;;;;;;;4.35;1.02;;;8.90;99.90;;;;;;5073935;28;20231;-43
2023/01/08 07:41:13;;;;;;;0.77;0.65;;;8.90;99.90;;;;;;5073699;28;20256;-42
2023/01/08 07:43:39;;;;;;;2.30;1.10;;;8.90;99.90;;;;;;5073603;28;20245;-42
2023/01/08 07:46:04;;;;;;;2.17;1.10;;;9.00;99.90;;;;;;5073442;28;20236;-43
2023/01/08 07:48:30;;;;;;;3.30;1.50;;;8.90;99.90;;;;;;5073876;28;20162;-42
2023/01/08 07:51:04;;;;;;;3.10;1.48;;;9.00;99.90;;;;;;5073621;28;20202;-42
2023/01/08 07:53:30;;;;;;;4.88;1.23;;;9.00;99.90;;;;;;5073957;28;20170;-42
2023/01/08 07:56:04;;;;;;;5.47;2.45;;;9.10;99.90;;;;;;5073477;28;20621;-43
2023/01/08 07:58:30;;;;;;;11.07;1.70;;;9.10;99.90;;;;;;5072369;28;20260;-43
2023/01/08 08:00:56;;;;;;;5.40;1.50;;;9.10;99.90;;;;;;5073308;28;20253;-43
2023/01/08 08:03:22;;;;;;;2.70;1.40;;;9.10;99.90;;;;;;5073047;28;20696;-43
2023/01/08 08:05:48;;;;;;;8.63;1.85;;;9.10;99.90;;;;;;5072973;28;20198;-43
2023/01/08 08:08:14;;;;;;;5.75;1.30;;;9.10;99.90;;;;;;5073262;28;20524;-43
2023/01/08 08:10:41;;;;;;;9.65;1.50;;;9.10;99.90;;;;;;5073002;28;20240;-45
2023/01/08 08:13:07;;;;;;;8.88;1.40;;;9.10;99.90;;;;;;5072796;28;20169;-45
2023/01/08 08:15:33;;;;;;;5.03;1.63;;;9.10;99.90;;;;;;5072651;28;20312;-43
2023/01/08 08:17:59;;;;;;;8.48;1.40;;;9.10;99.90;;;;;;5073032;28;20207;-43
2023/01/08 08:20:25;;;;;;;9.80;1.80;;;9.10;99.90;;;;;;5072722;28;20703;-44
2023/01/08 08:22:51;;;;;;;10.43;2.17;;;9.10;99.90;;;;;;5072629;28;20243;-45
2023/01/08 08:25:16;;;;;;;4.13;1.60;;;9.20;99.90;;;;;;5072747;28;20194;-44
2023/01/08 08:27:43;;;;;;;7.93;2.08;;;9.10;99.90;;;;;;5072653;28;20162;-46
2023/01/08 08:30:10;;;;;;;12.23;2.45;;;9.20;99.90;;;;;;5072251;28;20251;-51
2023/01/08 08:32:35;;;;;;;9.73;2.67;;;9.20;99.90;;;;;;5072757;28;20201;-45
2023/01/08 08:35:02;;;;;;;7.22;2.35;;;9.20;99.90;;;;;;5072948;28;20196;-44
2023/01/08 08:37:27;;;;;;;10.63;2.33;;;9.20;99.90;;;;;;5073153;28;20184;-44
2023/01/08 08:39:53;;;;;;;10.10;2.90;;;9.20;99.90;;;;;;5072365;28;20158;-45
2023/01/08 08:42:18;;;;;;;6.72;2.20;;;9.20;99.90;;;;;;5072170;28;20170;-44
2023/01/08 08:44:44;;;;;;;8.80;2.42;;;9.10;99.90;;;;;;5072046;28;20194;-44
2023/01/08 08:47:10;;;;;;;8.75;2.08;;;9.10;99.90;;;;;;5072368;28;20201;-44
2023/01/08 08:49:36;;;;;;;9.73;1.85;;;9.10;99.90;;;;;;5072356;28;20169;-44
2023/01/08 08:52:02;;;;;;;5.85;1.38;;;9.10;99.90;;;;;;5072544;28;20166;-44
2023/01/08 08:54:28;;;;;;;6.10;1.50;;;9.10;99.90;;;;;;5072569;28;20244;-44
2023/01/08 08:56:53;;;;;;;4.85;1.50;;;9.10;99.90;;;;;;5071730;28;20249;-44
2023/01/08 08:59:19;;;;;;;6.15;2.42;;;9.10;99.90;;;;;;5072079;28;20170;-44
2023/01/08 09:01:44;;;;;;;8.63;2.47;;;9.10;99.90;;;;;;5070906;28;20202;-44
2023/01/08 09:04:10;;;;;;;8.60;2.40;;;9.10;99.90;;;;;;5072129;28;20173;-44
2023/01/08 09:06:36;;;;;;;5.00;1.88;;;9.00;99.90;;;;;;5071820;28;20669;-44
2023/01/08 09:09:02;;;;;;;9.80;2.67;;;9.00;99.90;;;;;;5072260;28;20285;-45
2023/01/08 09:11:28;;;;;;;7.45;1.95;;;8.90;99.90;;;;;;5072136;28;20283;-45
2023/01/08 09:13:53;;;;;;;5.35;1.55;;;8.90;99.90;;;;;;5071846;28;20172;-44
2023/01/08 09:16:19;;;;;;;6.13;1.80;;;8.80;99.90;;;;;;5071255;28;20185;-44
2023/01/08 09:18:45;;;;;;;10.23;1.85;;;8.80;99.90;;;;;;5054940;28;20182;-44
2023/01/08 09:21:11;;;;;;;9.73;2.30;;;8.80;99.90;;;;;;5056889;28;20691;-44
2023/01/08 09:23:37;;;;;;;7.32;2.35;;;8.90;99.90;;;;;;5071090;28;20166;-45
2023/01/08 09:26:04;;;;;;;4.22;2.42;;;9.10;99.90;;;;;;5055666;28;20301;-45
2023/01/08 09:28:31;;;;;;;6.15;2.33;;;9.30;99.90;;;;;;5051599;28;20175;-44
2023/01/08 09:31:01;;;;;;;5.38;2.05;;;9.50;99.90;;;;;;5061496;28;20196;-45
2023/01/08 09:33:26;;;;;;;5.75;3.78;;;9.70;99.90;;;;;;5067614;28;20181;-45
2023/01/08 09:35:52;;;;;;;7.55;3.17;;;9.80;99.90;;;;;;5053280;28;20174;-45
2023/01/08 09:38:17;;;;;;;6.35;1.70;;;10.00;99.90;;;;;;5063220;28;20185;-44
2023/01/08 09:40:52;;;;;;;6.25;1.50;;;10.10;99.90;;;;;;5069381;28;20256;-44
2023/01/08 09:43:21;;;;;;;5.25;1.50;;;10.10;99.90;;;;;;5071033;28;20165;-44
2023/01/08 09:45:51;;;;;;;3.13;1.17;;;10.20;99.90;;;;;;5039493;28;20271;-45
2023/01/08 09:48:19;;;;;;;2.83;1.17;;;10.30;99.90;;;;;;5063199;28;20178;-45
2023/01/08 09:50:46;;;;;;;2.83;1.13;;;10.40;99.90;;;;;;5051519;28;20159;-45
2023/01/08 09:53:15;;;;;;;1.40;1.00;;;10.30;99.90;;;;;;5051714;28;20166;-45
2023/01/08 09:55:41;;;;;;;4.78;1.23;;;10.30;99.90;;;;;;5051183;28;20174;-45
2023/01/08 09:58:35;;;;;;;2.25;0.98;;;10.30;99.90;;;;;;5053042;28;20186;-45
2023/01/08 10:01:02;;;;;;;4.60;1.15;;;10.40;99.90;;;;;;5048129;28;20707;-45
2023/01/08 10:03:42;;;;;;;2.25;0.90;;;10.40;99.90;;;;;;5054078;28;20301;-45
2023/01/08 10:06:13;;;;;;;2.70;1.15;;;10.50;99.90;;;;;;5051266;28;20217;-44
2023/01/08 10:08:39;;;;;;;3.05;1.83;;;10.30;99.90;;;;;;5051163;28;20716;-45
2023/01/08 10:11:06;;;;;;;3.80;1.05;;;10.20;99.90;;;;;;5057900;28;20180;-45
2023/01/08 10:13:33;;;;;;;7.18;1.92;;;10.10;99.90;;;;;;5054457;28;20650;-45
2023/01/08 10:15:59;;;;;;;5.57;1.40;;;10.30;99.90;;;;;;5068775;28;20516;-45
2023/01/08 10:18:26;;;;;;;1.33;1.20;;;10.60;99.90;;;;;;5068708;28;20173;-45
2023/01/08 10:20:52;;;;;;;4.40;1.45;;;10.60;99.90;;;;;;5053269;28;20880;-45
2023/01/08 10:23:21;;;;;;;2.80;1.50;;;10.80;99.90;;;;;;5051096;28;20171;-45
2023/01/08 10:25:56;;;;;;;2.95;1.42;;;11.00;99.90;;;;;;5051073;28;20293;-44
2023/01/08 10:28:24;;;;;;;2.08;1.42;;;10.80;99.90;;;;;;5049367;28;20177;-44
2023/01/08 10:31:09;;;;;;;2.05;1.50;;;10.90;99.90;;;;;;5051061;28;20173;-45
2023/01/08 10:33:42;;;;;;;4.82;1.50;;;11.10;99.90;;;;;;5049549;28;20187;-45
2023/01/08 10:36:10;;;;;;;1.95;1.38;;;11.20;99.90;;;;;;5050495;28;20202;-46
2023/01/08 10:38:48;;;;;;;2.03;1.30;;;11.20;99.90;;;;;;5052466;28;20170;-45
2023/01/08 10:41:14;;;;;;;4.45;1.50;;;11.10;99.90;;;;;;5050319;28;20228;-45
2023/01/08 10:43:55;;;;;;;3.60;2.10;;;11.20;99.90;;;;;;5050648;28;20171;-45
2023/01/08 10:46:35;;;;;;;3.00;1.63;;;11.10;99.90;;;;;;5050420;28;20214;-45
2023/01/08 10:49:04;;;;;;;1.98;1.20;;;11.10;99.90;;;;;;5051093;28;20167;-45
2023/01/08 10:51:31;;;;;;;3.33;1.70;;;11.10;99.90;;;;;;5052262;28;20253;-44
2023/01/08 10:54:19;;;;;;;4.65;2.17;;;11.20;99.90;;;;;;5054581;28;20668;-45
2023/01/08 10:56:45;;;;;;;4.35;1.85;;;11.10;99.90;;;;;;5053205;28;20541;-47
2023/01/08 10:59:24;;;;;;;4.38;1.70;;;11.10;99.90;;;;;;5057173;28;20171;-45
2023/01/08 11:01:54;;;;;;;5.50;1.35;;;11.00;99.90;;;;;;5053804;28;20624;-47
2023/01/08 11:04:31;;;;;;;2.33;1.63;;;11.20;99.90;;;;;;5058294;28;20188;-46
2023/01/08 11:07:04;;;;;;;2.42;1.00;;;11.10;99.90;;;;;;5058542;28;20210;-46
2023/01/08 11:09:44;;;;;;;3.78;1.65;;;11.10;99.90;;;;;;5055968;28;20176;-47
2023/01/08 11:12:38;;;;;;;5.35;1.90;;;11.10;99.90;;;;;;5052901;28;20167;-47
2023/01/08 11:15:07;;;;;;;3.03;1.58;;;11.10;99.90;;;;;;5051836;28;20269;-46
2023/01/08 11:17:33;;;;;;;3.72;2.10;;;11.00;99.90;;;;;;5068579;28;20572;-45
2023/01/08 11:20:19;;;;;;;6.50;2.35;;;11.00;99.90;;;;;;5062378;28;20262;-45
2023/01/08 11:22:44;;;;;;;4.53;1.98;;;11.10;99.90;;;;;;5054160;28;20177;-45
2023/01/08 11:25:28;;;;;;;4.47;1.88;;;11.10;99.90;;;;;;5069205;28;20170;-45
2023/01/08 11:27:55;;;;;;;2.95;1.58;;;11.10;99.90;;;;;;5069591;28;20174;-45
2023/01/08 11:30:23;;;;;;;2.17;1.05;;;11.10;99.90;;;;;;5053914;28;20166;-45
2023/01/08 11:33:03;;;;;;;2.25;1.35;;;11.10;99.90;;;;;;5069094;28;20181;-45
2023/01/08 11:35:49;;;;;;;3.25;1.30;;;11.10;99.90;;;;;;5069447;28;20171;-45
2023/01/08 11:38:15;;;;;;;3.67;1.75;;;11.20;99.90;;;;;;5052385;28;20626;-45
2023/01/08 11:40:49;;;;;;;4.93;2.15;;;11.20;99.90;;;;;;5053617;28;20225;-46
2023/01/08 11:43:40;;;;;;;6.75;2.45;;;11.30;99.90;;;;;;5053588;28;20166;-45
2023/01/08 11:46:29;;;;;;;4.45;2.60;;;11.30;99.90;;;;;;5053383;28;20260;-44
2023/01/08 11:49:18;;;;;;;3.97;1.73;;;11.30;99.90;;;;;;5055574;28;20269;-45
2023/01/08 11:52:08;;;;;;;3.85;1.15;;;11.20;99.90;;;;;;5064176;28;20174;-45
2023/01/08 11:55:12;;;;;;;2.92;1.15;;;11.20;99.90;;;;;;5056680;28;20205;-48
2023/01/08 11:58:25;;;;;;;1.45;0.93;;;11.20;99.90;;;;;;5072677;28;20162;-46
2023/01/08 12:01:25;;;;;;;2.20;0.90;;;11.20;99.90;;;;;;5050162;28;21000;-46
2023/01/08 12:04:28;;;;;;;1.80;0.90;;;11.20;99.90;;;;;;5053078;28;20277;-45
2023/01/08 12:07:07;;;;;;;0.40;0.40;;;11.10;99.90;;;;;;5039922;28;20215;-45
2023/01/08 12:09:41;;;;;;;0.50;0.45;;;11.10;99.90;;;;;;5055593;28;20179;-45
2023/01/08 12:12:32;;;;;;;0.90;0.75;;;11.10;99.90;;;;;;5058505;28;20702;-44
2023/01/08 12:15:19;;;;;;;0.73;0.68;;;11.20;99.90;;;;;;5061828;28;20167;-45
2023/01/08 12:18:06;;;;;;;1.75;0.65;;;11.10;99.90;;;;;;5067869;28;20192;-45
2023/01/08 12:21:03;;;;;;;1.25;0.57;;;11.10;99.90;;;;;;5059213;28;20178;-45
2023/01/08 12:23:53;;;;;;;0.47;0.47;;;11.20;99.90;;;;;;5070833;28;20248;-45
2023/01/08 12:26:30;;;;;;;1.40;1.20;;;11.20;99.90;;;;;;5068723;28;20294;-45
2023/01/08 12:29:25;;;;;;;1.38;0.68;;;11.10;99.90;;;;;;5052873;28;20182;-45
2023/01/08 12:32:24;;;;;;;0.70;0.70;;;11.10;99.90;;;;;;5040524;28;20241;-45
2023/01/08 12:35:09;;;;;;;1.58;0.60;;;11.10;99.90;;;;;;5050538;28;20175;-45
2023/01/08 12:37:49;;;;;;;1.45;0.65;;;11.10;99.90;;;;;;5063028;28;20215;-45
2023/01/08 12:40:27;;;;;;;1.23;0.63;;;11.00;99.90;;;;;;5052419;28;20216;-45
2023/01/08 12:42:53;;;;;;;2.65;0.85;;;11.00;99.90;;;;;;5066770;28;20178;-47
2023/01/08 12:45:43;;;;;;;0.65;0.40;;;11.00;99.90;;;;;;5064635;28;20629;-45
2023/01/08 12:48:20;;;;;;;3.63;0.90;;;11.00;99.90;;;;;;5051122;28;20194;-45
2023/01/08 12:51:00;;;;;;;4.50;0.70;;;11.00;99.90;;;;;;5076967;28;20194;-45
2023/01/08 12:54:02;;;;;;;0.63;0.52;;;11.00;99.90;;;;;;5063473;28;20181;-45
2023/01/08 12:56:42;;;;;;;1.70;1.27;;;11.00;99.90;;;;;;5054201;28;20173;-45
2023/01/08 12:59:29;;;;;;;0.40;0.40;;;11.00;99.90;;;;;;5054084;28;20189;-45
2023/01/08 13:02:07;;;;;;;0.77;0.50;;;11.00;99.90;;;;;;5051781;28;20622;-45
2023/01/08 13:04:44;;;;;;;1.38;0.50;;;10.90;99.90;;;;;;5051905;28;20170;-45